sensor_id;sensor_type;location;lat;lon;timestamp;temperature;humidity
3281;DHT22;1652;51.318;6.202;2023-04-29T00:01:05;11.40;99.90
3281;DHT22;1652;51.318;6.202;2023-04-29T00:03:31;11.40;99.90
3281;DHT22;1652;51.318;6.202;2023-04-29T00:05:59;11.40;99.90
3281;DHT22;1652;51.318;6.202;2023-04-29T00:08:27;11.30;99.90
3281;DHT22;1652;51.318;6.202;2023-04-29T00:10:53;11.40;99.90
3281;DHT22;1652;51.318;6.202;2023-04-29T00:13:21;11.40;99.90
3281;DHT22;1652;51.318;6.202;2023-04-29T00:15:48;11.30;99.90
3281;DHT22;1652;51.318;6.202;2023-04-29T00:18:16;11.30;99.90
3281;DHT22;1652;51.318;6.202;2023-04-29T00:20:42;11.30;99.90
3281;DHT22;1652;51.318;6.202;2023-04-29T00:23:09;11.20;99.90
3281;DHT22;1652;51.318;6.202;2023-04-29T00:25:37;11.20;99.90
3281;DHT22;1652;51.318;6.202;2023-04-29T00:28:05;11.20;99.90
3281;DHT22;1652;51.318;6.202;2023-04-29T00:30:32;11.30;99.90
3281;DHT22;1652;51.318;6.202;2023-04-29T00:33:00;11.20;99.90
3281;DHT22;1652;51.318;6.202;2023-04-29T00:35:27;11.20;99.90
3281;DHT22;1652;51.318;6.202;2023-04-29T00:37:54;11.30;99.90
3281;DHT22;1652;51.318;6.202;2023-04-29T00:40:21;11.20;99.90
3281;DHT22;1652;51.318;6.202;2023-04-29T00:42:48;11.20;99.90
3281;DHT22;1652;51.318;6.202;2023-04-29T00:45:15;11.20;99.90
3281;DHT22;1652;51.318;6.202;2023-04-29T00:47:41;11.20;99.90
3281;DHT22;1652;51.318;6.202;2023-04-29T00:50:09;11.20;99.90
3281;DHT22;1652;51.318;6.202;2023-04-29T00:52:37;11.20;99.90
3281;DHT22;1652;51.318;6.202;2023-04-29T00:55:07;11.10;99.90
3281;DHT22;1652;51.318;6.202;2023-04-29T00:57:35;11.10;99.90
3281;DHT22;1652;51.318;6.202;2023-04-29T01:00:02;11.00;99.90
3281;DHT22;1652;51.318;6.202;2023-04-29T01:02:30;11.00;99.90
3281;DHT22;1652;51.318;6.202;2023-04-29T01:04:57;11.10;99.90
3281;DHT22;1652;51.318;6.202;2023-04-29T01:07:51;10.90;99.90
3281;DHT22;1652;51.318;6.202;2023-04-29T01:10:27;10.80;99.90
3281;DHT22;1652;51.318;6.202;2023-04-29T01:13:26;10.70;99.90
3281;DHT22;1652;51.318;6.202;2023-04-29T01:16:03;10.70;99.90
3281;DHT22;1652;51.318;6.202;2023-04-29T01:18:40;10.70;99.90
3281;DHT22;1652;51.318;6.202;2023-04-29T01:21:07;10.70;99.90
3281;DHT22;1652;51.318;6.202;2023-04-29T01:23:34;10.70;99.90
3281;DHT22;1652;51.318;6.202;2023-04-29T01:26:01;10.70;99.90
3281;DHT22;1652;51.318;6.202;2023-04-29T01:28:49;10.70;99.90
3281;DHT22;1652;51.318;6.202;2023-04-29T01:31:30;10.70;99.90
3281;DHT22;1652;51.318;6.202;2023-04-29T01:34:08;10.60;99.90
3281;DHT22;1652;51.318;6.202;2023-04-29T01:36:46;10.50;99.90
3281;DHT22;1652;51.318;6.202;2023-04-29T01:39:26;10.40;99.90
3281;DHT22;1652;51.318;6.202;2023-04-29T01:44:28;10.40;99.90
3281;DHT22;1652;51.318;6.202;2023-04-29T01:46:58;10.40;99.90
3281;DHT22;1652;51.318;6.202;2023-04-29T01:49:26;10.40;99.90
3281;DHT22;1652;51.318;6.202;2023-04-29T01:51:53;10.30;99.90
3281;DHT22;1652;51.318;6.202;2023-04-29T01:54:20;10.40;99.90
3281;DHT22;1652;51.318;6.202;2023-04-29T01:56:48;10.40;99.90
3281;DHT22;1652;51.318;6.202;2023-04-29T01:59:15;10.50;99.90
3281;DHT22;1652;51.318;6.202;2023-04-29T02:01:42;10.40;99.90
3281;DHT22;1652;51.318;6.202;2023-04-29T02:04:09;10.40;99.90
3281;DHT22;1652;51.318;6.202;2023-04-29T02:06:36;10.40;99.90
3281;DHT22;1652;51.318;6.202;2023-04-29T02:09:03;10.40;99.90
3281;DHT22;1652;51.318;6.202;2023-04-29T02:11:30;10.30;99.90
3281;DHT22;1652;51.318;6.202;2023-04-29T02:13:56;10.40;99.90
3281;DHT22;1652;51.318;6.202;2023-04-29T02:16:23;10.40;99.90
3281;DHT22;1652;51.318;6.202;2023-04-29T02:18:50;10.40;99.90
3281;DHT22;1652;51.318;6.202;2023-04-29T02:21:17;10.30;99.90
3281;DHT22;1652;51.318;6.202;2023-04-29T02:23:44;10.20;99.90
3281;DHT22;1652;51.318;6.202;2023-04-29T02:26:11;10.20;99.90
3281;DHT22;1652;51.318;6.202;2023-04-29T02:28:39;10.20;99.90
3281;DHT22;1652;51.318;6.202;2023-04-29T02:31:06;10.20;99.90
3281;DHT22;1652;51.318;6.202;2023-04-29T02:33:33;10.10;99.90
3281;DHT22;1652;51.318;6.202;2023-04-29T02:36:00;10.20;99.90
3281;DHT22;1652;51.318;6.202;2023-04-29T02:38:27;10.10;99.90
3281;DHT22;1652;51.318;6.202;2023-04-29T02:40:54;10.00;99.90
3281;DHT22;1652;51.318;6.202;2023-04-29T02:43:21;10.10;99.90
3281;DHT22;1652;51.318;6.202;2023-04-29T02:45:48;10.10;99.90
3281;DHT22;1652;51.318;6.202;2023-04-29T02:48:15;10.20;99.90
3281;DHT22;1652;51.318;6.202;2023-04-29T02:50:42;10.10;99.90
3281;DHT22;1652;51.318;6.202;2023-04-29T02:53:09;10.10;99.90
3281;DHT22;1652;51.318;6.202;2023-04-29T02:55:36;10.10;99.90
3281;DHT22;1652;51.318;6.202;2023-04-29T02:58:03;10.10;99.90
3281;DHT22;1652;51.318;6.202;2023-04-29T03:00:30;10.00;99.90
3281;DHT22;1652;51.318;6.202;2023-04-29T03:02:56;10.00;99.90
3281;DHT22;1652;51.318;6.202;2023-04-29T03:05:23;10.00;99.90
3281;DHT22;1652;51.318;6.202;2023-04-29T03:07:50;10.00;99.90
3281;DHT22;1652;51.318;6.202;2023-04-29T03:10:17;10.00;99.90
3281;DHT22;1652;51.318;6.202;2023-04-29T03:12:44;10.00;99.90
3281;DHT22;1652;51.318;6.202;2023-04-29T03:17:39;9.90;99.90
3281;DHT22;1652;51.318;6.202;2023-04-29T03:20:07;9.90;99.90
3281;DHT22;1652;51.318;6.202;2023-04-29T03:22:36;9.90;99.90
3281;DHT22;1652;51.318;6.202;2023-04-29T03:25:03;9.80;99.90
3281;DHT22;1652;51.318;6.202;2023-04-29T03:27:30;9.80;99.90
3281;DHT22;1652;51.318;6.202;2023-04-29T03:29:57;9.80;99.90
3281;DHT22;1652;51.318;6.202;2023-04-29T03:32:24;9.80;99.90
3281;DHT22;1652;51.318;6.202;2023-04-29T03:34:51;9.80;99.90
3281;DHT22;1652;51.318;6.202;2023-04-29T03:37:18;9.90;99.90
3281;DHT22;1652;51.318;6.202;2023-04-29T03:39:45;9.90;99.90
3281;DHT22;1652;51.318;6.202;2023-04-29T03:42:12;9.90;99.90
3281;DHT22;1652;51.318;6.202;2023-04-29T03:44:38;9.90;99.90
3281;DHT22;1652;51.318;6.202;2023-04-29T03:47:05;9.90;99.90
3281;DHT22;1652;51.318;6.202;2023-04-29T03:49:33;9.90;99.90
3281;DHT22;1652;51.318;6.202;2023-04-29T03:52:00;9.80;99.90
3281;DHT22;1652;51.318;6.202;2023-04-29T03:54:27;9.70;99.90
3281;DHT22;1652;51.318;6.202;2023-04-29T03:56:54;9.70;99.90
3281;DHT22;1652;51.318;6.202;2023-04-29T03:59:22;9.70;99.90
3281;DHT22;1652;51.318;6.202;2023-04-29T04:01:48;9.70;99.90
3281;DHT22;1652;51.318;6.202;2023-04-29T04:04:15;9.70;99.90
3281;DHT22;1652;51.318;6.202;2023-04-29T04:06:43;9.70;99.90
3281;DHT22;1652;51.318;6.202;2023-04-29T04:09:17;9.80;99.90
3281;DHT22;1652;51.318;6.202;2023-04-29T04:11:44;9.70;99.90
3281;DHT22;1652;51.318;6.202;2023-04-29T04:14:11;9.80;99.90
3281;DHT22;1652;51.318;6.202;2023-04-29T04:16:38;9.70;99.90
3281;DHT22;1652;51.318;6.202;2023-04-29T04:19:05;9.70;99.90
3281;DHT22;1652;51.318;6.202;2023-04-29T04:21:32;9.70;99.90
3281;DHT22;1652;51.318;6.202;2023-04-29T04:23:59;9.70;99.90
3281;DHT22;1652;51.318;6.202;2023-04-29T04:26:25;9.70;99.90
3281;DHT22;1652;51.318;6.202;2023-04-29T04:28:52;9.80;99.90
3281;DHT22;1652;51.318;6.202;2023-04-29T04:31:19;9.70;99.90
3281;DHT22;1652;51.318;6.202;2023-04-29T04:33:46;9.80;99.90
3281;DHT22;1652;51.318;6.202;2023-04-29T04:36:13;9.80;99.90
3281;DHT22;1652;51.318;6.202;2023-04-29T04:38:40;9.80;99.90
3281;DHT22;1652;51.318;6.202;2023-04-29T04:41:07;9.70;99.90
3281;DHT22;1652;51.318;6.202;2023-04-29T04:43:34;9.80;99.90
3281;DHT22;1652;51.318;6.202;2023-04-29T04:46:09;9.80;99.90
3281;DHT22;1652;51.318;6.202;2023-04-29T04:48:37;9.80;99.90
3281;DHT22;1652;51.318;6.202;2023-04-29T04:51:11;9.70;99.90
3281;DHT22;1652;51.318;6.202;2023-04-29T04:53:39;9.80;99.90
3281;DHT22;1652;51.318;6.202;2023-04-29T04:56:06;9.70;99.90
3281;DHT22;1652;51.318;6.202;2023-04-29T04:58:34;9.70;99.90
3281;DHT22;1652;51.318;6.202;2023-04-29T05:01:01;9.70;99.90
3281;DHT22;1652;51.318;6.202;2023-04-29T05:03:28;9.70;99.90
3281;DHT22;1652;51.318;6.202;2023-04-29T05:05:56;9.70;99.90
3281;DHT22;1652;51.318;6.202;2023-04-29T05:08:24;9.80;99.90
3281;DHT22;1652;51.318;6.202;2023-04-29T05:10:51;9.80;99.90
3281;DHT22;1652;51.318;6.202;2023-04-29T05:13:20;9.90;99.90
3281;DHT22;1652;51.318;6.202;2023-04-29T05:21:38;9.90;99.90
3281;DHT22;1652;51.318;6.202;2023-04-29T05:24:05;9.90;99.90
3281;DHT22;1652;51.318;6.202;2023-04-29T05:26:32;9.90;99.90
3281;DHT22;1652;51.318;6.202;2023-04-29T05:28:59;9.90;99.90
3281;DHT22;1652;51.318;6.202;2023-04-29T05:31:26;9.90;99.90
3281;DHT22;1652;51.318;6.202;2023-04-29T05:33:54;9.90;99.90
3281;DHT22;1652;51.318;6.202;2023-04-29T05:36:21;9.90;99.90
3281;DHT22;1652;51.318;6.202;2023-04-29T05:38:48;10.00;99.90
3281;DHT22;1652;51.318;6.202;2023-04-29T05:41:15;10.10;99.90
3281;DHT22;1652;51.318;6.202;2023-04-29T05:43:42;10.10;99.90
3281;DHT22;1652;51.318;6.202;2023-04-29T05:46:08;10.00;99.90
3281;DHT22;1652;51.318;6.202;2023-04-29T05:48:35;10.00;99.90
3281;DHT22;1652;51.318;6.202;2023-04-29T05:51:02;10.00;99.90
3281;DHT22;1652;51.318;6.202;2023-04-29T05:53:29;10.00;99.90
3281;DHT22;1652;51.318;6.202;2023-04-29T05:55:57;10.10;99.90
3281;DHT22;1652;51.318;6.202;2023-04-29T05:58:24;10.00;99.90
3281;DHT22;1652;51.318;6.202;2023-04-29T06:00:51;10.00;99.90
3281;DHT22;1652;51.318;6.202;2023-04-29T06:03:18;10.00;99.90
3281;DHT22;1652;51.318;6.202;2023-04-29T06:05:45;10.00;99.90
3281;DHT22;1652;51.318;6.202;2023-04-29T06:08:13;10.00;99.90
3281;DHT22;1652;51.318;6.202;2023-04-29T06:10:40;10.00;99.90
3281;DHT22;1652;51.318;6.202;2023-04-29T06:13:06;10.00;99.90
3281;DHT22;1652;51.318;6.202;2023-04-29T06:15:33;10.00;99.90
3281;DHT22;1652;51.318;6.202;2023-04-29T06:18:00;10.10;99.90
3281;DHT22;1652;51.318;6.202;2023-04-29T06:22:58;10.10;99.90
3281;DHT22;1652;51.318;6.202;2023-04-29T06:25:25;10.20;99.90
3281;DHT22;1652;51.318;6.202;2023-04-29T06:27:52;10.20;99.90
3281;DHT22;1652;51.318;6.202;2023-04-29T06:30:19;10.30;99.90
3281;DHT22;1652;51.318;6.202;2023-04-29T06:32:46;10.20;99.90
3281;DHT22;1652;51.318;6.202;2023-04-29T06:35:16;10.20;99.90
3281;DHT22;1652;51.318;6.202;2023-04-29T06:37:43;10.20;99.90
3281;DHT22;1652;51.318;6.202;2023-04-29T06:40:10;10.20;99.90
3281;DHT22;1652;51.318;6.202;2023-04-29T06:42:37;10.30;99.90
3281;DHT22;1652;51.318;6.202;2023-04-29T06:45:05;10.30;99.90
3281;DHT22;1652;51.318;6.202;2023-04-29T06:47:35;10.40;99.90
3281;DHT22;1652;51.318;6.202;2023-04-29T06:50:02;10.40;99.90
3281;DHT22;1652;51.318;6.202;2023-04-29T06:52:29;10.40;99.90
3281;DHT22;1652;51.318;6.202;2023-04-29T06:54:56;10.40;99.90
3281;DHT22;1652;51.318;6.202;2023-04-29T06:57:23;10.40;99.90
3281;DHT22;1652;51.318;6.202;2023-04-29T06:59:50;10.40;99.90
3281;DHT22;1652;51.318;6.202;2023-04-29T07:02:18;10.30;99.90
3281;DHT22;1652;51.318;6.202;2023-04-29T07:04:45;10.50;99.90
3281;DHT22;1652;51.318;6.202;2023-04-29T07:07:12;10.40;99.90
3281;DHT22;1652;51.318;6.202;2023-04-29T07:09:39;10.40;99.90
3281;DHT22;1652;51.318;6.202;2023-04-29T07:12:05;10.30;99.90
3281;DHT22;1652;51.318;6.202;2023-04-29T07:14:32;10.30;99.90
3281;DHT22;1652;51.318;6.202;2023-04-29T07:16:59;10.40;99.90
3281;DHT22;1652;51.318;6.202;2023-04-29T07:19:27;10.50;99.90
3281;DHT22;1652;51.318;6.202;2023-04-29T07:21:53;10.60;99.90
3281;DHT22;1652;51.318;6.202;2023-04-29T07:24:20;10.70;99.90
3281;DHT22;1652;51.318;6.202;2023-04-29T07:26:49;10.80;99.90
3281;DHT22;1652;51.318;6.202;2023-04-29T07:29:16;11.00;99.90
3281;DHT22;1652;51.318;6.202;2023-04-29T07:31:43;11.10;99.90
3281;DHT22;1652;51.318;6.202;2023-04-29T07:34:10;11.10;99.90
3281;DHT22;1652;51.318;6.202;2023-04-29T07:36:37;11.20;99.90
3281;DHT22;1652;51.318;6.202;2023-04-29T07:39:05;11.30;99.90
3281;DHT22;1652;51.318;6.202;2023-04-29T07:41:32;11.30;99.90
3281;DHT22;1652;51.318;6.202;2023-04-29T07:43:58;11.40;99.90
3281;DHT22;1652;51.318;6.202;2023-04-29T07:46:25;11.40;99.90
3281;DHT22;1652;51.318;6.202;2023-04-29T07:48:52;11.50;99.90
3281;DHT22;1652;51.318;6.202;2023-04-29T07:51:19;11.60;99.90
3281;DHT22;1652;51.318;6.202;2023-04-29T07:53:47;11.70;99.90
3281;DHT22;1652;51.318;6.202;2023-04-29T07:56:14;11.60;99.90
3281;DHT22;1652;51.318;6.202;2023-04-29T07:58:41;11.80;99.90
3281;DHT22;1652;51.318;6.202;2023-04-29T08:01:09;11.80;99.90
3281;DHT22;1652;51.318;6.202;2023-04-29T08:03:37;11.90;99.90
3281;DHT22;1652;51.318;6.202;2023-04-29T08:06:07;12.00;99.90
3281;DHT22;1652;51.318;6.202;2023-04-29T08:08:34;12.20;99.90
3281;DHT22;1652;51.318;6.202;2023-04-29T08:11:01;12.50;99.90
3281;DHT22;1652;51.318;6.202;2023-04-29T08:13:28;12.90;99.90
3281;DHT22;1652;51.318;6.202;2023-04-29T08:15:55;13.20;99.90
3281;DHT22;1652;51.318;6.202;2023-04-29T08:18:22;13.60;99.90
3281;DHT22;1652;51.318;6.202;2023-04-29T08:26:55;13.80;99.90
3281;DHT22;1652;51.318;6.202;2023-04-29T08:29:21;13.70;99.90
3281;DHT22;1652;51.318;6.202;2023-04-29T08:31:48;13.60;99.90
3281;DHT22;1652;51.318;6.202;2023-04-29T08:34:16;13.40;99.90
3281;DHT22;1652;51.318;6.202;2023-04-29T08:36:43;13.40;99.90
3281;DHT22;1652;51.318;6.202;2023-04-29T08:39:10;13.10;99.90
3281;DHT22;1652;51.318;6.202;2023-04-29T08:41:37;12.80;99.90
3281;DHT22;1652;51.318;6.202;2023-04-29T08:44:04;12.60;99.90
3281;DHT22;1652;51.318;6.202;2023-04-29T08:46:31;12.50;99.90
3281;DHT22;1652;51.318;6.202;2023-04-29T08:49:01;12.30;99.90
3281;DHT22;1652;51.318;6.202;2023-04-29T08:51:29;12.10;99.90
3281;DHT22;1652;51.318;6.202;2023-04-29T08:53:57;12.00;99.90
3281;DHT22;1652;51.318;6.202;2023-04-29T08:56:24;12.00;99.90
3281;DHT22;1652;51.318;6.202;2023-04-29T08:58:54;12.00;99.90
3281;DHT22;1652;51.318;6.202;2023-04-29T09:01:27;12.00;99.90
3281;DHT22;1652;51.318;6.202;2023-04-29T09:04:14;12.00;99.90
3281;DHT22;1652;51.318;6.202;2023-04-29T09:06:43;11.90;99.90
3281;DHT22;1652;51.318;6.202;2023-04-29T09:09:10;11.90;99.90
3281;DHT22;1652;51.318;6.202;2023-04-29T09:11:40;11.90;99.90
3281;DHT22;1652;51.318;6.202;2023-04-29T09:14:07;12.00;99.90
3281;DHT22;1652;51.318;6.202;2023-04-29T09:16:35;12.10;99.90
3281;DHT22;1652;51.318;6.202;2023-04-29T09:19:04;12.20;99.90
3281;DHT22;1652;51.318;6.202;2023-04-29T09:21:30;12.10;99.90
3281;DHT22;1652;51.318;6.202;2023-04-29T09:24:01;12.10;99.90
3281;DHT22;1652;51.318;6.202;2023-04-29T09:26:41;12.10;99.90
3281;DHT22;1652;51.318;6.202;2023-04-29T09:29:13;12.20;99.90
3281;DHT22;1652;51.318;6.202;2023-04-29T09:31:44;12.20;99.90
3281;DHT22;1652;51.318;6.202;2023-04-29T09:34:12;12.20;99.90
3281;DHT22;1652;51.318;6.202;2023-04-29T09:36:42;12.20;99.90
3281;DHT22;1652;51.318;6.202;2023-04-29T09:39:14;12.00;99.90
3281;DHT22;1652;51.318;6.202;2023-04-29T09:41:57;11.90;99.90
3281;DHT22;1652;51.318;6.202;2023-04-29T09:44:30;12.00;99.90
3281;DHT22;1652;51.318;6.202;2023-04-29T09:47:04;12.10;99.90
3281;DHT22;1652;51.318;6.202;2023-04-29T09:49:36;12.20;99.90
3281;DHT22;1652;51.318;6.202;2023-04-29T09:52:08;12.40;99.90
3281;DHT22;1652;51.318;6.202;2023-04-29T09:54:37;12.30;99.90
3281;DHT22;1652;51.318;6.202;2023-04-29T09:57:06;12.40;99.90
3281;DHT22;1652;51.318;6.202;2023-04-29T09:59:37;12.50;99.90
3281;DHT22;1652;51.318;6.202;2023-04-29T10:04:38;12.50;99.90
3281;DHT22;1652;51.318;6.202;2023-04-29T10:07:06;12.50;99.90
3281;DHT22;1652;51.318;6.202;2023-04-29T10:09:36;12.70;99.90
3281;DHT22;1652;51.318;6.202;2023-04-29T10:12:08;12.70;99.90
3281;DHT22;1652;51.318;6.202;2023-04-29T10:14:40;12.80;99.90
3281;DHT22;1652;51.318;6.202;2023-04-29T10:17:15;13.10;99.90
3281;DHT22;1652;51.318;6.202;2023-04-29T10:19:55;13.30;99.90
3281;DHT22;1652;51.318;6.202;2023-04-29T10:22:54;13.30;99.90
3281;DHT22;1652;51.318;6.202;2023-04-29T10:40:06;13.50;99.90
3281;DHT22;1652;51.318;6.202;2023-04-29T10:42:48;13.70;99.90
3281;DHT22;1652;51.318;6.202;2023-04-29T10:53:04;13.90;99.90
3281;DHT22;1652;51.318;6.202;2023-04-29T10:55:35;13.90;99.90
3281;DHT22;1652;51.318;6.202;2023-04-29T10:58:04;13.80;99.90
3281;DHT22;1652;51.318;6.202;2023-04-29T11:00:33;13.90;99.90
3281;DHT22;1652;51.318;6.202;2023-04-29T11:03:01;14.20;99.90
3281;DHT22;1652;51.318;6.202;2023-04-29T11:05:35;14.30;99.90
3281;DHT22;1652;51.318;6.202;2023-04-29T11:08:19;14.80;91.70
3281;DHT22;1652;51.318;6.202;2023-04-29T11:10:53;14.60;73.70
3281;DHT22;1652;51.318;6.202;2023-04-29T11:13:30;14.60;84.00
3281;DHT22;1652;51.318;6.202;2023-04-29T11:18:35;14.60;93.30
3281;DHT22;1652;51.318;6.202;2023-04-29T11:23:38;14.50;83.20
3281;DHT22;1652;51.318;6.202;2023-04-29T11:26:10;14.50;95.10
3281;DHT22;1652;51.318;6.202;2023-04-29T11:28:39;14.40;87.30
3281;DHT22;1652;51.318;6.202;2023-04-29T11:31:07;14.40;95.90
3281;DHT22;1652;51.318;6.202;2023-04-29T11:33:34;14.50;90.90
3281;DHT22;1652;51.318;6.202;2023-04-29T11:36:03;14.50;65.60
3281;DHT22;1652;51.318;6.202;2023-04-29T11:41:33;15.20;36.00
3281;DHT22;1652;51.318;6.202;2023-04-29T11:44:01;14.90;41.20
3281;DHT22;1652;51.318;6.202;2023-04-29T11:46:30;14.70;64.30
3281;DHT22;1652;51.318;6.202;2023-04-29T11:48:58;14.60;72.70
3281;DHT22;1652;51.318;6.202;2023-04-29T11:51:28;14.80;67.70
3281;DHT22;1652;51.318;6.202;2023-04-29T11:53:56;15.00;32.00
3281;DHT22;1652;51.318;6.202;2023-04-29T11:56:23;15.10;49.80
3281;DHT22;1652;51.318;6.202;2023-04-29T11:58:54;15.40;59.00
3281;DHT22;1652;51.318;6.202;2023-04-29T12:01:22;15.50;34.00
3281;DHT22;1652;51.318;6.202;2023-04-29T12:03:50;15.70;10.40
3281;DHT22;1652;51.318;6.202;2023-04-29T12:06:17;15.70;10.00
3281;DHT22;1652;51.318;6.202;2023-04-29T12:08:46;15.90;25.20
3281;DHT22;1652;51.318;6.202;2023-04-29T12:11:13;16.10;22.70
3281;DHT22;1652;51.318;6.202;2023-04-29T12:13:40;16.30;31.00
3281;DHT22;1652;51.318;6.202;2023-04-29T12:16:07;16.30;12.90
3281;DHT22;1652;51.318;6.202;2023-04-29T12:18:34;16.30;1.00
3281;DHT22;1652;51.318;6.202;2023-04-29T12:21:01;16.40;1.00
3281;DHT22;1652;51.318;6.202;2023-04-29T12:23:28;16.20;1.00
3281;DHT22;1652;51.318;6.202;2023-04-29T12:25:57;16.20;1.00
3281;DHT22;1652;51.318;6.202;2023-04-29T12:28:25;16.20;1.00
3281;DHT22;1652;51.318;6.202;2023-04-29T12:30:53;15.70;1.00
3281;DHT22;1652;51.318;6.202;2023-04-29T12:33:22;15.60;14.80
3281;DHT22;1652;51.318;6.202;2023-04-29T12:35:50;15.50;15.80
3281;DHT22;1652;51.318;6.202;2023-04-29T12:38:35;15.40;12.30
3281;DHT22;1652;51.318;6.202;2023-04-29T12:41:02;15.30;22.40
3281;DHT22;1652;51.318;6.202;2023-04-29T12:43:33;15.10;22.60
3281;DHT22;1652;51.318;6.202;2023-04-29T12:46:04;14.80;24.50
3281;DHT22;1652;51.318;6.202;2023-04-29T12:48:32;14.80;48.00
3281;DHT22;1652;51.318;6.202;2023-04-29T12:51:01;14.70;50.30
3281;DHT22;1652;51.318;6.202;2023-04-29T12:53:31;14.50;45.00
3281;DHT22;1652;51.318;6.202;2023-04-29T12:55:58;14.30;51.10
3281;DHT22;1652;51.318;6.202;2023-04-29T12:58:28;14.40;41.80
3281;DHT22;1652;51.318;6.202;2023-04-29T13:00:56;14.30;63.30
3281;DHT22;1652;51.318;6.202;2023-04-29T13:03:24;14.50;55.10
3281;DHT22;1652;51.318;6.202;2023-04-29T13:05:52;14.50;44.10
3281;DHT22;1652;51.318;6.202;2023-04-29T13:08:20;14.50;42.80
3281;DHT22;1652;51.318;6.202;2023-04-29T13:10:48;14.60;37.30
3281;DHT22;1652;51.318;6.202;2023-04-29T13:13:15;14.80;55.30
3281;DHT22;1652;51.318;6.202;2023-04-29T13:15:42;15.00;34.50
3281;DHT22;1652;51.318;6.202;2023-04-29T13:18:09;15.30;1.00
3281;DHT22;1652;51.318;6.202;2023-04-29T13:20:37;15.30;1.00
3281;DHT22;1652;51.318;6.202;2023-04-29T13:23:08;15.30;1.00
3281;DHT22;1652;51.318;6.202;2023-04-29T13:25:35;15.30;1.00
3281;DHT22;1652;51.318;6.202;2023-04-29T13:28:02;15.40;1.00
3281;DHT22;1652;51.318;6.202;2023-04-29T13:30:31;15.30;1.00
3281;DHT22;1652;51.318;6.202;2023-04-29T13:32:59;15.40;1.00
3281;DHT22;1652;51.318;6.202;2023-04-29T13:35:37;15.30;3.80
3281;DHT22;1652;51.318;6.202;2023-04-29T13:38:06;15.10;7.10
3281;DHT22;1652;51.318;6.202;2023-04-29T13:40:33;15.10;12.10
3281;DHT22;1652;51.318;6.202;2023-04-29T13:43:10;14.90;21.80
3281;DHT22;1652;51.318;6.202;2023-04-29T13:45:44;14.80;38.60
3281;DHT22;1652;51.318;6.202;2023-04-29T13:48:13;14.60;36.00
3281;DHT22;1652;51.318;6.202;2023-04-29T13:51:00;14.60;60.60
3281;DHT22;1652;51.318;6.202;2023-04-29T13:53:30;14.70;52.40
3281;DHT22;1652;51.318;6.202;2023-04-29T13:56:00;14.80;51.20
3281;DHT22;1652;51.318;6.202;2023-04-29T13:58:47;15.00;36.20
3281;DHT22;1652;51.318;6.202;2023-04-29T14:01:36;15.10;25.70
3281;DHT22;1652;51.318;6.202;2023-04-29T14:04:27;15.30;25.00
3281;DHT22;1652;51.318;6.202;2023-04-29T14:06:54;15.60;1.00
3281;DHT22;1652;51.318;6.202;2023-04-29T14:09:21;15.70;1.00
3281;DHT22;1652;51.318;6.202;2023-04-29T14:11:49;15.70;8.60
3281;DHT22;1652;51.318;6.202;2023-04-29T14:14:16;15.70;1.00
3281;DHT22;1652;51.318;6.202;2023-04-29T14:16:43;15.80;1.00
3281;DHT22;1652;51.318;6.202;2023-04-29T14:19:10;15.80;1.00
3281;DHT22;1652;51.318;6.202;2023-04-29T14:21:37;15.60;1.00
3281;DHT22;1652;51.318;6.202;2023-04-29T14:24:04;15.50;1.00
3281;DHT22;1652;51.318;6.202;2023-04-29T14:26:31;15.50;1.00
3281;DHT22;1652;51.318;6.202;2023-04-29T14:28:58;15.50;1.00
3281;DHT22;1652;51.318;6.202;2023-04-29T14:31:30;15.90;14.80
3281;DHT22;1652;51.318;6.202;2023-04-29T14:33:57;16.20;2.70
3281;DHT22;1652;51.318;6.202;2023-04-29T14:36:25;16.30;99.90
3281;DHT22;1652;51.318;6.202;2023-04-29T14:38:52;16.10;99.90
3281;DHT22;1652;51.318;6.202;2023-04-29T14:41:19;16.00;99.90
3281;DHT22;1652;51.318;6.202;2023-04-29T14:43:49;15.70;99.90
3281;DHT22;1652;51.318;6.202;2023-04-29T14:46:16;15.70;99.90
3281;DHT22;1652;51.318;6.202;2023-04-29T14:48:43;15.60;99.90
3281;DHT22;1652;51.318;6.202;2023-04-29T14:51:10;15.60;99.90
3281;DHT22;1652;51.318;6.202;2023-04-29T14:53:37;15.70;99.90
3281;DHT22;1652;51.318;6.202;2023-04-29T14:56:04;15.70;99.90
3281;DHT22;1652;51.318;6.202;2023-04-29T14:58:33;15.80;99.90
3281;DHT22;1652;51.318;6.202;2023-04-29T15:01:00;15.80;99.90
3281;DHT22;1652;51.318;6.202;2023-04-29T15:03:27;16.10;99.90
3281;DHT22;1652;51.318;6.202;2023-04-29T15:05:54;16.40;99.90
3281;DHT22;1652;51.318;6.202;2023-04-29T15:08:22;16.30;99.90
3281;DHT22;1652;51.318;6.202;2023-04-29T15:10:48;16.30;99.90
3281;DHT22;1652;51.318;6.202;2023-04-29T15:13:15;16.40;99.90
3281;DHT22;1652;51.318;6.202;2023-04-29T15:15:42;16.40;99.90
3281;DHT22;1652;51.318;6.202;2023-04-29T15:18:09;16.50;99.90
3281;DHT22;1652;51.318;6.202;2023-04-29T15:20:37;16.60;99.90
3281;DHT22;1652;51.318;6.202;2023-04-29T15:23:04;16.50;99.90
3281;DHT22;1652;51.318;6.202;2023-04-29T15:25:31;16.30;99.90
3281;DHT22;1652;51.318;6.202;2023-04-29T15:28:01;16.20;99.90
3281;DHT22;1652;51.318;6.202;2023-04-29T15:30:31;16.30;99.90
3281;DHT22;1652;51.318;6.202;2023-04-29T15:32:58;16.20;99.90
3281;DHT22;1652;51.318;6.202;2023-04-29T15:35:25;16.00;99.90
3281;DHT22;1652;51.318;6.202;2023-04-29T15:37:53;15.90;99.90
3281;DHT22;1652;51.318;6.202;2023-04-29T15:40:20;16.10;99.90
3281;DHT22;1652;51.318;6.202;2023-04-29T15:42:47;16.10;99.90
3281;DHT22;1652;51.318;6.202;2023-04-29T15:45:14;16.20;99.90
3281;DHT22;1652;51.318;6.202;2023-04-29T15:47:41;16.20;99.90
3281;DHT22;1652;51.318;6.202;2023-04-29T15:50:08;16.10;99.90
3281;DHT22;1652;51.318;6.202;2023-04-29T15:52:36;16.30;99.90
3281;DHT22;1652;51.318;6.202;2023-04-29T15:55:04;16.30;99.90
3281;DHT22;1652;51.318;6.202;2023-04-29T15:57:31;16.20;99.90
3281;DHT22;1652;51.318;6.202;2023-04-29T15:59:58;16.20;99.90
3281;DHT22;1652;51.318;6.202;2023-04-29T16:02:25;16.10;99.90
3281;DHT22;1652;51.318;6.202;2023-04-29T16:04:52;16.10;99.90
3281;DHT22;1652;51.318;6.202;2023-04-29T16:07:19;16.10;99.90
3281;DHT22;1652;51.318;6.202;2023-04-29T16:09:46;16.00;99.90
3281;DHT22;1652;51.318;6.202;2023-04-29T16:12:13;16.00;99.90
3281;DHT22;1652;51.318;6.202;2023-04-29T16:14:40;16.00;99.90
3281;DHT22;1652;51.318;6.202;2023-04-29T16:17:06;15.90;99.90
3281;DHT22;1652;51.318;6.202;2023-04-29T16:19:33;15.90;99.90
3281;DHT22;1652;51.318;6.202;2023-04-29T16:22:03;15.80;99.90
3281;DHT22;1652;51.318;6.202;2023-04-29T16:24:30;15.90;99.90
3281;DHT22;1652;51.318;6.202;2023-04-29T16:26:57;16.10;99.90
3281;DHT22;1652;51.318;6.202;2023-04-29T16:29:25;16.00;99.90
3281;DHT22;1652;51.318;6.202;2023-04-29T16:31:51;15.90;99.90
3281;DHT22;1652;51.318;6.202;2023-04-29T16:34:19;15.80;99.90
3281;DHT22;1652;51.318;6.202;2023-04-29T16:36:46;15.90;99.90
3281;DHT22;1652;51.318;6.202;2023-04-29T16:41:48;15.90;99.90
3281;DHT22;1652;51.318;6.202;2023-04-29T16:44:15;15.90;99.90
3281;DHT22;1652;51.318;6.202;2023-04-29T16:46:42;16.00;99.90
3281;DHT22;1652;51.318;6.202;2023-04-29T16:49:10;16.00;99.90
3281;DHT22;1652;51.318;6.202;2023-04-29T16:51:37;16.10;99.90
3281;DHT22;1652;51.318;6.202;2023-04-29T16:54:04;16.10;99.90
3281;DHT22;1652;51.318;6.202;2023-04-29T16:56:31;16.10;99.90
3281;DHT22;1652;51.318;6.202;2023-04-29T16:58:57;15.90;99.90
3281;DHT22;1652;51.318;6.202;2023-04-29T17:01:24;15.80;99.90
3281;DHT22;1652;51.318;6.202;2023-04-29T17:03:51;15.80;99.90
3281;DHT22;1652;51.318;6.202;2023-04-29T17:06:18;15.70;99.90
3281;DHT22;1652;51.318;6.202;2023-04-29T17:08:45;15.60;99.90